»·PEaware :: N756TB CYVR-KSEA

N756TB :: CYVR-KSEA

FLIGHT INFORMATION

Flight Status: Arrived
Operator: Privately registered:
United States
More flights under this callsign
Pilot: Anonymous 21121 (21121)
Aircraft: SOCATA TBM-900
(TBM9)
More flights by this aircraft type
Origin: CYVR Vancouver Intl
Canada
Destination: KSEA Seattle-Tacoma Intl
United States
More flights between these airports :: More routes between these airports
Route: JAWBN JAWBN6
File this flight plan on PilotEdge
Remarks:
Altitude:
(Current/Filed)
11,000ft
Speed:
(Current/Filed)
320kts
Departed: 20-Nov-18 10:03 AM
Arrived: 20-Nov-18 10:44 AM
Distance/Time
Traveled:
111nm/0:41
Distance/Time
To Go:
Arrived

Flight Plot

Page will automatically refresh every two minutes.

Flight plan parsing failed; only flown route is shown


Map Options




Map Legend


Flown Route
Filed Route
Departure Airport
Arrival Airport
Navaid (VOR, NDB)
Fix

Horizontal Profiles

Position Reports

Time Latitude Longitude Heading Altitude Ground
Speed
20-Nov-18 09:57 49.178932 -123.163429 32 17ft 0kts
20-Nov-18 09:58 49.178932 -123.163429 32 17ft 0kts
20-Nov-18 09:59 49.178932 -123.163429 32 17ft 0kts
20-Nov-18 10:00 49.178932 -123.163429 32 17ft 0kts
20-Nov-18 10:01 49.178932 -123.163429 32 17ft 0kts
20-Nov-18 10:02 49.178932 -123.163429 32 17ft 0kts
20-Nov-18 10:03 49.179189 -123.163178 32 17ft 11kts
20-Nov-18 10:04 49.182828 -123.162623 4 17ft 0kts
20-Nov-18 10:05 49.183599 -123.162535 4 17ft 7kts
20-Nov-18 10:06 49.186842 -123.177743 284 177ft 115kts
20-Nov-18 10:07 49.175260 -123.212058 173 2279ft 117kts
20-Nov-18 10:08 49.147970 -123.196189 157 4435ft 111kts
20-Nov-18 10:09 49.121840 -123.178811 158 6331ft 109kts
20-Nov-18 10:10 49.094953 -123.160760 160 8122ft 108kts
20-Nov-18 10:11 49.067599 -123.146270 172 9773ft 105kts
20-Nov-18 10:12 49.038384 -123.137596 174 11995ft 126kts
20-Nov-18 10:13 49.006224 -123.127892 175 14780ft 119kts
20-Nov-18 10:14 48.970724 -123.118209 178 15671ft 199kts
20-Nov-18 10:15 48.908929 -123.136397 188 13117ft 275kts
20-Nov-18 10:16 48.851708 -123.120890 173 12291ft 255kts
20-Nov-18 10:17 48.802660 -123.105764 171 11243ft 261kts
20-Nov-18 10:18 48.742981 -123.085386 171 10983ft 243kts
20-Nov-18 10:19 48.688303 -123.066564 171 10990ft 236kts
20-Nov-18 10:20 48.633358 -123.047656 170 10994ft 235kts
20-Nov-18 10:21 48.575746 -123.027868 170 10995ft 236kts
20-Nov-18 10:22 48.522206 -123.009518 170 10997ft 237kts
20-Nov-18 10:23 48.469190 -122.991385 170 11000ft 237kts
20-Nov-18 10:24 48.415399 -122.973137 167 11004ft 236kts
20-Nov-18 10:25 48.359760 -122.954079 167 11007ft 235kts
20-Nov-18 10:26 48.301122 -122.934151 168 11012ft 236kts
20-Nov-18 10:27 48.243124 -122.914498 168 11013ft 237kts
20-Nov-18 10:28 48.184882 -122.894805 168 11015ft 238kts
20-Nov-18 10:29 48.127164 -122.875353 167 10233ft 247kts
20-Nov-18 10:30 48.069838 -122.856038 167 10040ft 231kts
20-Nov-18 10:31 48.019122 -122.832135 149 10052ft 225kts
20-Nov-18 10:32 47.972125 -122.789281 149 10040ft 224kts
20-Nov-18 10:33 47.925381 -122.747022 149 10030ft 224kts
20-Nov-18 10:34 47.881116 -122.707147 148 9553ft 236kts
20-Nov-18 10:35 47.831421 -122.662377 150 8278ft 254kts
20-Nov-18 10:36 47.780617 -122.616807 149 7062ft 257kts
20-Nov-18 10:37 47.730832 -122.572212 149 6005ft 243kts
20-Nov-18 10:38 47.684422 -122.530727 149 5985ft 215kts
20-Nov-18 10:39 47.660381 -122.475954 85 5529ft 226kts
20-Nov-18 10:40 47.663754 -122.399514 84 4242ft 241kts
20-Nov-18 10:41 47.646553 -122.337507 145 3598ft 221kts
20-Nov-18 10:42 47.604399 -122.317276 178 3130ft 204kts
20-Nov-18 10:43 47.559221 -122.317267 180 2269ft 202kts
20-Nov-18 10:44 47.519388 -122.317434 180 1518ft 177kts
20-Nov-18 10:45 47.481567 -122.317716 181 855ft 146kts
20-Nov-18 10:46 47.453839 -122.317952 180 436ft 76kts
20-Nov-18 10:47 47.447550 -122.316345 148 436ft 0kts
20-Nov-18 10:48 47.446557 -122.314515 109 436ft 24kts
20-Nov-18 10:49 47.439574 -122.313912 230 436ft 24kts
20-Nov-18 10:50 47.439057 -122.315079 92 436ft 0kts
20-Nov-18 10:51 47.439057 -122.315079 92 436ft 0kts

Navigation Log

Ident Type
Flight plan parsing failed, navigation log unavailable